Time,TemperatureF,DewpointF,PressureIn,WindDirection,WindDirectionDegrees,WindSpeedMPH,WindSpeedGustMPH,Humidity,HourlyPrecipIn,Conditions,Clouds,dailyrainin,SoftwareType,DateUTC
2014-03-14 00:00:00,0.9,4.0,16.29,WNW,292,6.0,6.0,91,0.00,,,0.00,Rainwise IP-100,2014-03-14 04:00:00,
2014-03-14 00:01:00,0.9,4.0,16.29,WNW,292,0.0,6.0,90,0.00,,,0.00,Rainwise IP-100,2014-03-14 04:01:00,
2014-03-14 00:02:00,0.9,4.0,16.29,WNW,292,2.0,6.0,90,0.00,,,0.00,Rainwise IP-100,2014-03-14 04:02:00,
2014-03-14 00:04:00,0.8,4.0,16.29,ESE,112,5.0,6.0,91,0.00,,,0.00,Rainwise IP-100,2014-03-14 04:04:00,
2014-03-14 00:09:00,1.7,0.0,16.29,West,270,5.0,7.0,89,0.00,,,0.00,Rainwise IP-100,2014-03-14 04:09:00,
2014-03-14 00:14:00,0.7,4.0,16.29,WNW,292,6.0,7.0,92,0.00,,,0.00,Rainwise IP-100,2014-03-14 04:14:00,
2014-03-14 00:19:00,0.1,0.0,16.29,NW,315,2.0,6.0,93,0.00,,,0.00,Rainwise IP-100,2014-03-14 04:19:00,
2014-03-14 00:24:00,0.4,0.0,16.30,WNW,292,0.0,5.0,93,0.00,,,0.00,Rainwise IP-100,2014-03-14 04:24:00,
2014-03-14 00:29:00,1.3,4.0,16.29,WNW,292,2.0,6.0,91,0.00,,,0.00,Rainwise IP-100,2014-03-14 04:29:00,
2014-03-14 00:34:00,0.7,4.0,16.29,WNW,292,0.0,4.0,92,0.00,,,0.00,Rainwise IP-100,2014-03-14 04:34:00,
2014-03-14 00:39:00,-0.1,0.0,16.30,NW,315,1.0,4.0,93,0.00,,,0.00,Rainwise IP-100,2014-03-14 04:39:00,
2014-03-14 00:45:00,-0.1,0.0,16.30,NW,315,0.0,5.0,96,0.00,,,0.00,Rainwise IP-100,2014-03-14 04:45:00,
2014-03-14 00:50:00,0.1,0.0,16.30,WNW,292,3.0,6.0,93,0.00,,,0.00,Rainwise IP-100,2014-03-14 04:50:00,
2014-03-14 00:55:00,0.3,0.0,16.30,WNW,292,3.0,5.0,96,0.00,,,0.00,Rainwise IP-100,2014-03-14 04:55:00,
2014-03-14 01:00:00,0.2,0.0,16.30,WNW,292,5.0,5.0,96,0.00,,,0.00,Rainwise IP-100,2014-03-14 05:00:00,
2014-03-14 01:05:00,0.1,0.0,16.30,WNW,292,1.0,5.0,96,0.00,,,0.00,Rainwise IP-100,2014-03-14 05:05:00,
2014-03-14 01:10:00,-0.1,0.0,16.30,NW,315,3.0,7.0,96,0.00,,,0.00,Rainwise IP-100,2014-03-14 05:10:00,
2014-03-14 01:15:00,0.3,0.0,16.30,WNW,292,2.0,6.0,95,0.00,,,0.00,Rainwise IP-100,2014-03-14 05:15:00,
2014-03-14 01:21:00,0.9,4.0,16.29,WNW,292,3.0,7.0,91,0.00,,,0.00,Rainwise IP-100,2014-03-14 05:21:00,
2014-03-14 01:26:00,2.5,0.0,16.29,ESE,112,5.0,7.0,84,0.00,,,0.00,Rainwise IP-100,2014-03-14 05:26:00,
2014-03-14 01:31:00,3.1,0.0,16.29,NW,315,6.0,6.0,86,0.00,,,0.00,Rainwise IP-100,2014-03-14 05:31:00,
2014-03-14 01:36:00,3.3,0.0,16.29,WNW,292,0.0,6.0,84,0.00,,,0.00,Rainwise IP-100,2014-03-14 05:36:00,
2014-03-14 01:41:00,1.6,0.0,16.29,NW,315,5.0,7.0,88,0.00,,,0.00,Rainwise IP-100,2014-03-14 05:41:00,
2014-03-14 01:46:00,0.6,4.0,16.29,NW,315,3.0,6.0,91,0.00,,,0.00,Rainwise IP-100,2014-03-14 05:46:00,
2014-03-14 01:51:00,0.1,0.0,16.30,NW,315,2.0,5.0,94,0.00,,,0.00,Rainwise IP-100,2014-03-14 05:51:00,
2014-03-14 01:56:00,-0.3,0.0,16.30,NW,315,4.0,4.0,97,0.00,,,0.00,Rainwise IP-100,2014-03-14 05:56:00,
2014-03-14 02:02:00,-0.3,0.0,16.30,NW,315,5.0,6.0,96,0.00,,,0.00,Rainwise IP-100,2014-03-14 06:02:00,
2014-03-14 02:07:00,-0.1,0.0,16.30,NW,315,4.0,6.0,96,0.00,,,0.00,Rainwise IP-100,2014-03-14 06:07:00,
2014-03-14 02:12:00,-0.3,0.0,16.30,NW,315,2.0,6.0,96,0.00,,,0.00,Rainwise IP-100,2014-03-14 06:12:00,
2014-03-14 02:17:00,-0.4,0.0,16.30,NW,315,3.0,5.0,96,0.00,,,0.00,Rainwise IP-100,2014-03-14 06:17:00,
2014-03-14 02:22:00,-0.4,0.0,16.30,NW,315,0.0,5.0,95,0.00,,,0.00,Rainwise IP-100,2014-03-14 06:22:00,
2014-03-14 02:27:00,-0.5,0.0,16.30,NNW,337,5.0,6.0,94,0.00,,,0.00,Rainwise IP-100,2014-03-14 06:27:00,
2014-03-14 02:32:00,-0.8,0.0,16.30,NW,315,0.0,6.0,97,0.00,,,0.00,Rainwise IP-100,2014-03-14 06:32:00,
2014-03-14 02:38:00,-1.2,0.0,16.30,NW,315,0.0,5.0,96,0.00,,,0.00,Rainwise IP-100,2014-03-14 06:38:00,
2014-03-14 02:43:00,-0.9,0.0,16.30,NW,315,5.0,5.0,97,0.00,,,0.00,Rainwise IP-100,2014-03-14 06:43:00,
2014-03-14 02:48:00,-0.5,0.0,16.30,NW,315,2.0,6.0,93,0.00,,,0.00,Rainwise IP-100,2014-03-14 06:48:00,
2014-03-14 02:53:00,-0.7,0.0,16.30,NW,315,3.0,5.0,93,0.00,,,0.00,Rainwise IP-100,2014-03-14 06:53:00,
2014-03-14 02:58:00,-1.3,0.0,16.30,NW,315,3.0,4.0,94,0.00,,,0.00,Rainwise IP-100,2014-03-14 06:58:00,
2014-03-14 03:03:00,-2.1,0.0,16.30,NW,315,4.0,4.0,96,0.00,,,0.00,Rainwise IP-100,2014-03-14 07:03:00,
2014-03-14 03:08:00,-2.1,0.0,16.30,NW,315,1.0,6.0,96,0.00,,,0.00,Rainwise IP-100,2014-03-14 07:08:00,
2014-03-14 03:13:00,-2.3,0.0,16.30,NW,315,0.0,5.0,99,0.00,,,0.00,Rainwise IP-100,2014-03-14 07:13:00,
2014-03-14 03:19:00,-2.4,0.0,16.30,NNW,337,0.0,6.0,98,0.00,,,0.00,Rainwise IP-100,2014-03-14 07:19:00,
2014-03-14 03:24:00,-2.1,0.0,16.30,NW,315,0.0,5.0,100,0.00,,,0.00,Rainwise IP-100,2014-03-14 07:24:00,
2014-03-14 03:29:00,-2.2,0.0,16.30,NW,315,0.0,3.0,99,0.00,,,0.00,Rainwise IP-100,2014-03-14 07:29:00,
2014-03-14 03:34:00,-2.5,0.0,16.30,NW,315,4.0,4.0,100,0.00,,,0.00,Rainwise IP-100,2014-03-14 07:34:00,
2014-03-14 03:39:00,-2.5,0.0,16.30,NW,315,3.0,5.0,98,0.00,,,0.00,Rainwise IP-100,2014-03-14 07:39:00,
2014-03-14 03:44:00,-2.5,0.0,16.30,NW,315,1.0,4.0,99,0.00,,,0.00,Rainwise IP-100,2014-03-14 07:44:00,
2014-03-14 03:49:00,-2.6,0.0,16.30,NW,315,0.0,4.0,100,0.00,,,0.00,Rainwise IP-100,2014-03-14 07:49:00,
2014-03-14 03:55:00,-2.6,0.0,16.30,NW,315,2.0,4.0,99,0.00,,,0.00,Rainwise IP-100,2014-03-14 07:55:00,
2014-03-14 04:00:00,-2.5,0.0,16.30,NW,315,2.0,4.0,99,0.00,,,0.00,Rainwise IP-100,2014-03-14 08:00:00,
2014-03-14 04:05:00,-2.6,0.0,16.30,NW,315,1.0,3.0,100,0.00,,,0.00,Rainwise IP-100,2014-03-14 08:05:00,
2014-03-14 04:10:00,-2.2,0.0,16.30,NW,315,4.0,6.0,100,0.00,,,0.00,Rainwise IP-100,2014-03-14 08:10:00,
2014-03-14 04:15:00,-2.3,0.0,16.30,NW,315,1.0,5.0,100,0.00,,,0.00,Rainwise IP-100,2014-03-14 08:15:00,
2014-03-14 04:20:00,-2.4,0.0,16.30,NW,315,5.0,6.0,100,0.00,,,0.00,Rainwise IP-100,2014-03-14 08:20:00,
2014-03-14 04:25:00,-2.3,0.0,16.30,WNW,292,1.0,7.0,100,0.00,,,0.00,Rainwise IP-100,2014-03-14 08:25:00,
2014-03-14 04:30:00,-2.4,0.0,16.30,NW,315,2.0,6.0,100,0.00,,,0.00,Rainwise IP-100,2014-03-14 08:30:00,
2014-03-14 04:35:00,-2.5,0.0,16.30,NNW,337,4.0,4.0,100,0.00,,,0.00,Rainwise IP-100,2014-03-14 08:35:00,
2014-03-14 04:41:00,-2.1,0.0,16.30,NW,315,3.0,6.0,100,0.00,,,0.00,Rainwise IP-100,2014-03-14 08:41:00,
2014-03-14 04:46:00,-1.9,0.0,16.30,NW,315,3.0,4.0,100,0.00,,,0.00,Rainwise IP-100,2014-03-14 08:46:00,
2014-03-14 04:51:00,-2.1,0.0,16.30,NW,315,4.0,4.0,100,0.00,,,0.00,Rainwise IP-100,2014-03-14 08:51:00,
2014-03-14 04:56:00,-2.1,0.0,16.30,NW,315,4.0,5.0,100,0.00,,,0.00,Rainwise IP-100,2014-03-14 08:56:00,
2014-03-14 05:01:00,-1.9,0.0,16.30,NW,315,2.0,6.0,100,0.00,,,0.00,Rainwise IP-100,2014-03-14 09:01:00,
2014-03-14 05:06:00,-1.9,0.0,16.30,NW,315,1.0,4.0,100,0.00,,,0.00,Rainwise IP-100,2014-03-14 09:06:00,
2014-03-14 05:11:00,-1.6,0.0,16.30,NW,315,1.0,5.0,100,0.00,,,0.00,Rainwise IP-100,2014-03-14 09:11:00,
2014-03-14 05:17:00,-1.1,0.0,16.30,NW,315,1.0,4.0,99,0.00,,,0.00,Rainwise IP-100,2014-03-14 09:17:00,
2014-03-14 05:22:00,-1.2,0.0,16.30,NW,315,3.0,4.0,100,0.00,,,0.00,Rainwise IP-100,2014-03-14 09:22:00,
2014-03-14 05:27:00,-1.5,0.0,16.30,NW,315,2.0,4.0,99,0.00,,,0.00,Rainwise IP-100,2014-03-14 09:27:00,
2014-03-14 05:32:00,-1.6,0.0,16.30,NNW,337,3.0,3.0,100,0.00,,,0.00,Rainwise IP-100,2014-03-14 09:32:00,
2014-03-14 05:37:00,-1.4,0.0,16.30,NW,315,3.0,5.0,100,0.00,,,0.00,Rainwise IP-100,2014-03-14 09:37:00,
2014-03-14 05:42:00,-1.4,0.0,16.30,NW,315,1.0,5.0,100,0.00,,,0.00,Rainwise IP-100,2014-03-14 09:42:00,
2014-03-14 05:47:00,-1.7,0.0,16.30,NW,315,1.0,4.0,100,0.00,,,0.00,Rainwise IP-100,2014-03-14 09:47:00,
2014-03-14 05:52:00,-2.1,0.0,16.30,NW,315,1.0,4.0,100,0.00,,,0.00,Rainwise IP-100,2014-03-14 09:52:00,
2014-03-14 05:58:00,-2.3,0.0,16.30,NW,315,4.0,5.0,100,0.00,,,0.00,Rainwise IP-100,2014-03-14 09:58:00,
2014-03-14 06:03:00,-2.2,0.0,16.30,WNW,292,2.0,6.0,100,0.00,,,0.00,Rainwise IP-100,2014-03-14 10:03:00,
2014-03-14 06:08:00,-2.1,0.0,16.30,WNW,292,2.0,5.0,100,0.00,,,0.00,Rainwise IP-100,2014-03-14 10:08:00,
2014-03-14 06:13:00,-2.1,0.0,16.30,WNW,292,2.0,4.0,100,0.00,,,0.00,Rainwise IP-100,2014-03-14 10:13:00,
2014-03-14 06:18:00,-1.9,0.0,16.30,WNW,292,3.0,5.0,100,0.00,,,0.00,Rainwise IP-100,2014-03-14 10:18:00,
2014-03-14 06:23:00,-1.8,0.0,16.30,WNW,292,2.0,5.0,100,0.00,,,0.00,Rainwise IP-100,2014-03-14 10:23:00,
2014-03-14 06:28:00,-1.6,0.0,16.30,NW,315,4.0,5.0,100,0.00,,,0.00,Rainwise IP-100,2014-03-14 10:28:00,
2014-03-14 06:34:00,-1.4,0.0,16.30,NW,315,1.0,5.0,100,0.00,,,0.00,Rainwise IP-100,2014-03-14 10:34:00,
2014-03-14 06:39:00,-1.4,0.0,16.30,NW,315,4.0,6.0,100,0.00,,,0.00,Rainwise IP-100,2014-03-14 10:39:00,
2014-03-14 06:44:00,-0.9,0.0,16.30,NW,315,4.0,5.0,100,0.00,,,0.00,Rainwise IP-100,2014-03-14 10:44:00,
2014-03-14 06:49:00,-0.5,0.0,16.30,NW,315,3.0,5.0,100,0.00,,,0.00,Rainwise IP-100,2014-03-14 10:49:00,
2014-03-14 06:54:00,-0.3,0.0,16.30,NW,315,3.0,5.0,97,0.00,,,0.00,Rainwise IP-100,2014-03-14 10:54:00,
2014-03-14 06:59:00,-0.1,0.0,16.30,NW,315,3.0,5.0,97,0.00,,,0.00,Rainwise IP-100,2014-03-14 10:59:00,
2014-03-14 07:04:00,-0.3,0.0,16.30,NW,315,4.0,5.0,97,0.00,,,0.00,Rainwise IP-100,2014-03-14 11:04:00,
2014-03-14 07:09:00,-0.2,0.0,16.30,NW,315,1.0,6.0,96,0.00,,,0.00,Rainwise IP-100,2014-03-14 11:09:00,
2014-03-14 07:15:00,0.1,0.0,16.30,NW,315,2.0,5.0,98,0.00,,,0.00,Rainwise IP-100,2014-03-14 11:15:00,
2014-03-14 07:20:00,0.2,0.0,16.30,NW,315,0.0,5.0,96,0.00,,,0.00,Rainwise IP-100,2014-03-14 11:20:00,
2014-03-14 07:25:00,-0.1,0.0,16.30,NW,315,0.0,0.0,98,0.00,,,0.00,Rainwise IP-100,2014-03-14 11:25:00,
2014-03-14 07:30:00,-0.4,0.0,16.30,NW,315,0.0,2.0,98,0.00,,,0.00,Rainwise IP-100,2014-03-14 11:30:00,
2014-03-14 07:35:00,-0.9,0.0,16.30,NW,315,0.0,2.0,99,0.00,,,0.00,Rainwise IP-100,2014-03-14 11:35:00,
2014-03-14 07:40:00,-1.1,0.0,16.30,NW,315,0.0,0.0,100,0.00,,,0.00,Rainwise IP-100,2014-03-14 11:40:00,
2014-03-14 07:45:00,-1.1,0.0,16.30,NW,315,3.0,3.0,100,0.00,,,0.00,Rainwise IP-100,2014-03-14 11:45:00,
2014-03-14 07:51:00,-0.5,0.0,16.30,NW,315,2.0,4.0,98,0.00,,,0.00,Rainwise IP-100,2014-03-14 11:51:00,
2014-03-14 07:56:00,-0.1,0.0,16.30,WNW,292,0.0,4.0,99,0.00,,,0.00,Rainwise IP-100,2014-03-14 11:56:00,
2014-03-14 08:01:00,1.2,4.0,16.29,WNW,292,0.0,3.0,94,0.00,,,0.00,Rainwise IP-100,2014-03-14 12:01:00,
2014-03-14 08:06:00,2.3,4.0,16.29,WNW,292,2.0,3.0,91,0.00,,,0.00,Rainwise IP-100,2014-03-14 12:06:00,
2014-03-14 08:11:00,3.5,0.0,16.29,WSW,247,1.0,5.0,88,0.00,,,0.00,Rainwise IP-100,2014-03-14 12:11:00,
2014-03-14 08:16:00,4.9,4.0,16.29,SSW,202,0.0,5.0,88,0.00,,,0.00,Rainwise IP-100,2014-03-14 12:16:00,
2014-03-14 08:21:00,5.4,4.0,16.29,SSE,157,0.0,3.0,90,0.00,,,0.00,Rainwise IP-100,2014-03-14 12:21:00,
2014-03-14 08:26:00,5.2,4.0,16.29,SSE,157,0.0,3.0,88,0.00,,,0.00,Rainwise IP-100,2014-03-14 12:26:00,
2014-03-14 08:32:00,5.1,4.0,16.29,West,270,4.0,7.0,81,0.00,,,0.00,Rainwise IP-100,2014-03-14 12:32:00,
2014-03-14 08:37:00,5.8,4.0,16.28,West,270,0.0,9.0,78,0.00,,,0.00,Rainwise IP-100,2014-03-14 12:37:00,
2014-03-14 08:42:00,6.6,0.0,16.28,SE,135,1.0,6.0,74,0.00,,,0.00,Rainwise IP-100,2014-03-14 12:42:00,
2014-03-14 08:47:00,6.8,0.0,16.28,ESE,112,0.0,6.0,73,0.00,,,0.00,Rainwise IP-100,2014-03-14 12:47:00,
2014-03-14 08:52:00,6.5,4.0,16.28,ESE,112,2.0,7.0,76,0.00,,,0.00,Rainwise IP-100,2014-03-14 12:52:00,
2014-03-14 08:57:00,6.6,4.0,16.28,ESE,112,5.0,5.0,78,0.00,,,0.00,Rainwise IP-100,2014-03-14 12:57:00,
2014-03-14 09:02:00,6.9,0.0,16.28,ESE,112,0.0,5.0,73,0.00,,,0.00,Rainwise IP-100,2014-03-14 13:02:00,
2014-03-14 09:08:00,7.2,4.0,16.28,SE,135,3.0,6.0,78,0.00,,,0.00,Rainwise IP-100,2014-03-14 13:08:00,
2014-03-14 09:13:00,7.6,0.0,16.28,East,90,4.0,7.0,74,0.00,,,0.00,Rainwise IP-100,2014-03-14 13:13:00,
2014-03-14 09:18:00,7.6,0.0,16.28,ESE,112,4.0,9.0,74,0.00,,,0.00,Rainwise IP-100,2014-03-14 13:18:00,
2014-03-14 09:23:00,7.8,0.0,16.28,SE,135,2.0,9.0,71,0.00,,,0.00,Rainwise IP-100,2014-03-14 13:23:00,
2014-03-14 09:28:00,8.3,0.0,16.28,ESE,112,6.0,7.0,72,0.00,,,0.00,Rainwise IP-100,2014-03-14 13:28:00,
2014-03-14 09:33:00,9.1,4.0,16.28,ESE,112,5.0,6.0,72,0.00,,,0.00,Rainwise IP-100,2014-03-14 13:33:00,
2014-03-14 09:38:00,9.9,4.0,16.28,SE,135,1.0,6.0,69,0.00,,,0.00,Rainwise IP-100,2014-03-14 13:38:00,
2014-03-14 09:43:00,10.6,4.0,16.28,SE,135,3.0,7.0,68,0.00,,,0.00,Rainwise IP-100,2014-03-14 13:43:00,
2014-03-14 09:49:00,10.9,4.0,16.27,SE,135,6.0,7.0,66,0.00,,,0.00,Rainwise IP-100,2014-03-14 13:49:00,
2014-03-14 09:54:00,11.4,4.0,16.27,ESE,112,2.0,6.0,66,0.00,,,0.00,Rainwise IP-100,2014-03-14 13:54:00,
2014-03-14 09:59:00,12.1,4.0,16.27,South,180,4.0,6.0,67,0.00,,,0.00,Rainwise IP-100,2014-03-14 13:59:00,
2014-03-14 10:04:00,12.6,4.0,16.27,SE,135,4.0,7.0,64,0.00,,,0.00,Rainwise IP-100,2014-03-14 14:04:00,
2014-03-14 10:09:00,13.1,4.0,16.27,SE,135,4.0,7.0,62,0.00,,,0.00,Rainwise IP-100,2014-03-14 14:09:00,
2014-03-14 10:14:00,13.9,4.0,16.27,SE,135,4.0,7.0,64,0.00,,,0.00,Rainwise IP-100,2014-03-14 14:14:00,
2014-03-14 10:19:00,13.6,4.0,16.27,SE,135,6.0,7.0,61,0.00,,,0.00,Rainwise IP-100,2014-03-14 14:19:00,
2014-03-14 10:25:00,14.1,4.0,16.27,ESE,112,2.0,7.0,64,0.00,,,0.00,Rainwise IP-100,2014-03-14 14:25:00,
2014-03-14 10:30:00,14.6,8.0,16.27,South,180,6.0,6.0,65,0.00,,,0.00,Rainwise IP-100,2014-03-14 14:30:00,
2014-03-14 10:35:00,14.4,4.0,16.27,SSE,157,2.0,9.0,63,0.00,,,0.00,Rainwise IP-100,2014-03-14 14:35:00,
2014-03-14 10:40:00,14.9,8.0,16.27,SE,135,6.0,7.0,66,0.00,,,0.00,Rainwise IP-100,2014-03-14 14:40:00,
2014-03-14 10:45:00,14.2,4.0,16.27,ESE,112,2.0,8.0,66,0.00,,,0.00,Rainwise IP-100,2014-03-14 14:45:00,
2014-03-14 10:50:00,14.6,8.0,16.27,SSE,157,2.0,7.0,71,0.00,,,0.00,Rainwise IP-100,2014-03-14 14:50:00,
2014-03-14 10:55:00,14.7,8.0,16.27,SSE,157,1.0,10.0,71,0.00,,,0.00,Rainwise IP-100,2014-03-14 14:55:00,
2014-03-14 11:00:00,15.3,8.0,16.27,SSE,157,3.0,7.0,71,0.00,,,0.00,Rainwise IP-100,2014-03-14 15:00:00,
2014-03-14 11:06:00,15.3,8.0,16.27,SSW,202,1.0,10.0,68,0.00,,,0.00,Rainwise IP-100,2014-03-14 15:06:00,
2014-03-14 11:11:00,15.7,8.0,16.27,ESE,112,3.0,12.0,68,0.00,,,0.00,Rainwise IP-100,2014-03-14 15:11:00,
2014-03-14 11:16:00,16.6,11.0,16.27,SE,135,6.0,9.0,70,0.00,,,0.00,Rainwise IP-100,2014-03-14 15:16:00,
2014-03-14 11:21:00,18.1,11.0,16.26,SE,135,9.0,10.0,71,0.00,,,0.00,Rainwise IP-100,2014-03-14 15:21:00,
2014-03-14 11:26:00,17.9,11.0,16.26,SSE,157,6.0,13.0,68,0.00,,,0.00,Rainwise IP-100,2014-03-14 15:26:00,
2014-03-14 11:31:00,17.5,11.0,16.26,ESE,112,4.0,15.0,67,0.00,,,0.00,Rainwise IP-100,2014-03-14 15:31:00,
2014-03-14 11:36:00,17.7,11.0,16.26,ESE,112,7.0,12.0,65,0.00,,,0.00,Rainwise IP-100,2014-03-14 15:36:00,
2014-03-14 11:42:00,18.5,14.0,16.26,South,180,6.0,12.0,69,0.00,,,0.00,Rainwise IP-100,2014-03-14 15:42:00,
2014-03-14 11:47:00,19.2,11.0,16.26,ESE,112,9.0,12.0,64,0.00,,,0.00,Rainwise IP-100,2014-03-14 15:47:00,
2014-03-14 11:52:00,19.4,11.0,16.26,SSW,202,4.0,13.0,66,0.00,,,0.00,Rainwise IP-100,2014-03-14 15:52:00,
2014-03-14 11:57:00,20.1,11.0,16.26,SSE,157,6.0,12.0,67,0.00,,,0.00,Rainwise IP-100,2014-03-14 15:57:00,
2014-03-14 12:02:00,20.4,11.0,16.26,SSE,157,4.0,12.0,66,0.00,,,0.00,Rainwise IP-100,2014-03-14 16:02:00,
2014-03-14 12:07:00,21.0,11.0,16.26,SE,135,7.0,16.0,65,0.00,,,0.00,Rainwise IP-100,2014-03-14 16:07:00,
2014-03-14 12:12:00,21.2,11.0,16.26,SE,135,11.0,12.0,62,0.00,,,0.00,Rainwise IP-100,2014-03-14 16:12:00,
2014-03-14 12:17:00,19.9,11.0,16.26,SSE,157,6.0,13.0,60,0.06,,,0.01,Rainwise IP-100,2014-03-14 16:17:00,
2014-03-14 12:23:00,19.6,11.0,16.26,SE,135,6.0,12.0,60,0.06,,,0.01,Rainwise IP-100,2014-03-14 16:23:00,
2014-03-14 12:28:00,20.2,11.0,16.26,East,90,11.0,12.0,64,0.00,,,0.01,Rainwise IP-100,2014-03-14 16:28:00,
2014-03-14 12:33:00,19.5,11.0,16.26,SSE,157,6.0,15.0,62,0.00,,,0.01,Rainwise IP-100,2014-03-14 16:33:00,
2014-03-14 12:38:00,19.9,11.0,16.26,SE,135,6.0,14.0,61,0.00,,,0.01,Rainwise IP-100,2014-03-14 16:38:00,
2014-03-14 12:43:00,20.1,11.0,16.26,South,180,5.0,15.0,62,0.00,,,0.01,Rainwise IP-100,2014-03-14 16:43:00,
2014-03-14 12:48:00,20.9,11.0,16.26,SW,225,5.0,12.0,63,0.00,,,0.01,Rainwise IP-100,2014-03-14 16:48:00,
2014-03-14 12:53:00,21.1,11.0,16.26,SE,135,9.0,13.0,60,0.00,,,0.01,Rainwise IP-100,2014-03-14 16:53:00,
2014-03-14 12:59:00,20.7,11.0,16.25,SE,135,7.0,13.0,60,0.00,,,0.01,Rainwise IP-100,2014-03-14 16:59:00,
2014-03-14 13:04:00,20.4,11.0,16.26,East,90,7.0,13.0,63,0.00,,,0.01,Rainwise IP-100,2014-03-14 17:04:00,
2014-03-14 13:09:00,21.0,11.0,16.26,South,180,4.0,13.0,64,0.00,,,0.01,Rainwise IP-100,2014-03-14 17:09:00,
2014-03-14 13:14:00,20.7,8.0,16.25,SSE,157,4.0,15.0,59,0.00,,,0.01,Rainwise IP-100,2014-03-14 17:14:00,
2014-03-14 13:19:00,21.1,11.0,16.26,ESE,112,6.0,12.0,62,0.00,,,0.01,Rainwise IP-100,2014-03-14 17:19:00,
2014-03-14 13:24:00,21.4,11.0,16.26,SSE,157,10.0,13.0,63,0.00,,,0.01,Rainwise IP-100,2014-03-14 17:24:00,
2014-03-14 13:29:00,21.6,11.0,16.25,ESE,112,8.0,12.0,62,0.00,,,0.01,Rainwise IP-100,2014-03-14 17:29:00,
2014-03-14 13:34:00,21.3,11.0,16.26,ESE,112,7.0,12.0,62,0.00,,,0.01,Rainwise IP-100,2014-03-14 17:34:00,
2014-03-14 13:40:00,21.2,11.0,16.26,SSW,202,3.0,12.0,64,0.00,,,0.01,Rainwise IP-100,2014-03-14 17:40:00,
2014-03-14 13:45:00,20.8,11.0,16.26,South,180,6.0,16.0,62,0.00,,,0.01,Rainwise IP-100,2014-03-14 17:45:00,
2014-03-14 13:50:00,21.2,11.0,16.26,SE,135,8.0,13.0,65,0.00,,,0.01,Rainwise IP-100,2014-03-14 17:50:00,
2014-03-14 13:55:00,20.9,11.0,16.26,SE,135,7.0,12.0,67,0.00,,,0.01,Rainwise IP-100,2014-03-14 17:55:00,
2014-03-14 14:00:00,20.9,11.0,16.26,ESE,112,5.0,11.0,67,0.00,,,0.01,Rainwise IP-100,2014-03-14 18:00:00,
2014-03-14 14:05:00,20.7,11.0,16.26,SE,135,6.0,10.0,64,0.00,,,0.01,Rainwise IP-100,2014-03-14 18:05:00,
2014-03-14 14:10:00,21.2,14.0,16.26,SSE,157,0.0,11.0,70,0.00,,,0.01,Rainwise IP-100,2014-03-14 18:10:00,
2014-03-14 14:16:00,21.5,14.0,16.26,SE,135,7.0,9.0,66,0.00,,,0.01,Rainwise IP-100,2014-03-14 18:16:00,
2014-03-14 14:21:00,22.0,14.0,16.25,South,180,6.0,10.0,68,0.00,,,0.01,Rainwise IP-100,2014-03-14 18:21:00,
2014-03-14 14:26:00,21.9,14.0,16.25,SE,135,6.0,11.0,66,0.00,,,0.01,Rainwise IP-100,2014-03-14 18:26:00,
2014-03-14 14:31:00,21.8,14.0,16.25,ESE,112,7.0,9.0,70,0.00,,,0.01,Rainwise IP-100,2014-03-14 18:31:00,
2014-03-14 14:36:00,21.6,14.0,16.25,ESE,112,5.0,12.0,67,0.00,,,0.01,Rainwise IP-100,2014-03-14 18:36:00,
2014-03-14 14:41:00,21.9,16.0,16.25,ESE,112,6.0,8.0,72,0.00,,,0.01,Rainwise IP-100,2014-03-14 18:41:00,
2014-03-14 14:46:00,22.1,14.0,16.25,SSE,157,2.0,10.0,70,0.00,,,0.01,Rainwise IP-100,2014-03-14 18:46:00,
2014-03-14 14:51:00,21.9,14.0,16.25,SSE,157,6.0,12.0,67,0.00,,,0.01,Rainwise IP-100,2014-03-14 18:51:00,
2014-03-14 14:57:00,21.9,14.0,16.25,ESE,112,5.0,10.0,69,0.00,,,0.01,Rainwise IP-100,2014-03-14 18:57:00,
2014-03-14 15:02:00,21.8,14.0,16.25,SE,135,4.0,12.0,69,0.00,,,0.01,Rainwise IP-100,2014-03-14 19:02:00,
2014-03-14 15:07:00,21.6,16.0,16.25,ESE,112,6.0,10.0,71,0.00,,,0.01,Rainwise IP-100,2014-03-14 19:07:00,
2014-03-14 15:12:00,21.8,16.0,16.25,SE,135,3.0,7.0,72,0.00,,,0.01,Rainwise IP-100,2014-03-14 19:12:00,
2014-03-14 15:17:00,21.9,16.0,16.25,SSE,157,5.0,8.0,76,0.00,,,0.01,Rainwise IP-100,2014-03-14 19:17:00,
2014-03-14 15:22:00,21.7,16.0,16.25,ESE,112,6.0,9.0,74,0.00,,,0.01,Rainwise IP-100,2014-03-14 19:22:00,
2014-03-14 15:27:00,21.8,16.0,16.25,SE,135,3.0,11.0,72,0.00,,,0.01,Rainwise IP-100,2014-03-14 19:27:00,
2014-03-14 15:33:00,21.9,16.0,16.25,SSE,157,5.0,9.0,73,0.00,,,0.01,Rainwise IP-100,2014-03-14 19:33:00,
2014-03-14 15:38:00,21.9,16.0,16.25,SSE,157,3.0,10.0,72,0.00,,,0.01,Rainwise IP-100,2014-03-14 19:38:00,
2014-03-14 15:43:00,21.9,16.0,16.25,SSE,157,4.0,9.0,74,0.00,,,0.01,Rainwise IP-100,2014-03-14 19:43:00,
2014-03-14 15:48:00,22.1,16.0,16.25,SE,135,3.0,8.0,74,0.00,,,0.01,Rainwise IP-100,2014-03-14 19:48:00,
2014-03-14 15:53:00,22.0,16.0,16.25,ESE,112,5.0,12.0,74,0.00,,,0.01,Rainwise IP-100,2014-03-14 19:53:00,
2014-03-14 15:58:00,22.3,16.0,16.25,South,180,3.0,10.0,76,0.00,,,0.01,Rainwise IP-100,2014-03-14 19:58:00,
2014-03-14 16:03:00,22.5,16.0,16.25,SSE,157,6.0,9.0,74,0.00,,,0.01,Rainwise IP-100,2014-03-14 20:03:00,
2014-03-14 16:08:00,22.7,16.0,16.25,SSE,157,7.0,11.0,72,0.00,,,0.01,Rainwise IP-100,2014-03-14 20:08:00,
2014-03-14 16:14:00,22.9,16.0,16.25,SSE,157,3.0,10.0,73,0.00,,,0.01,Rainwise IP-100,2014-03-14 20:14:00,
2014-03-14 16:19:00,23.5,18.0,16.25,West,270,2.0,6.0,74,0.00,,,0.01,Rainwise IP-100,2014-03-14 20:19:00,
2014-03-14 16:24:00,23.9,18.0,16.25,SW,225,2.0,8.0,74,0.00,,,0.01,Rainwise IP-100,2014-03-14 20:24:00,
2014-03-14 16:29:00,23.8,16.0,16.25,SE,135,2.0,15.0,70,0.00,,,0.01,Rainwise IP-100,2014-03-14 20:29:00,
2014-03-14 16:34:00,24.0,16.0,16.25,SSE,157,8.0,10.0,72,0.00,,,0.01,Rainwise IP-100,2014-03-14 20:34:00,
2014-03-14 16:39:00,24.0,16.0,16.25,SE,135,6.0,13.0,72,0.00,,,0.01,Rainwise IP-100,2014-03-14 20:39:00,
2014-03-14 16:44:00,24.3,16.0,16.25,SE,135,3.0,10.0,71,0.00,,,0.01,Rainwise IP-100,2014-03-14 20:44:00,
2014-03-14 16:50:00,24.2,16.0,16.25,SE,135,4.0,9.0,71,0.00,,,0.01,Rainwise IP-100,2014-03-14 20:50:00,
2014-03-14 16:55:00,24.2,16.0,16.25,SE,135,3.0,13.0,71,0.00,,,0.01,Rainwise IP-100,2014-03-14 20:55:00,
2014-03-14 17:00:00,24.3,16.0,16.25,SW,225,0.0,10.0,71,0.00,,,0.01,Rainwise IP-100,2014-03-14 21:00:00,
2014-03-14 17:05:00,24.5,18.0,16.25,ESE,112,4.0,9.0,74,0.00,,,0.01,Rainwise IP-100,2014-03-14 21:05:00,
2014-03-14 17:10:00,24.3,16.0,16.25,SE,135,8.0,12.0,73,0.00,,,0.01,Rainwise IP-100,2014-03-14 21:10:00,
2014-03-14 17:15:00,24.1,18.0,16.25,South,180,2.0,11.0,75,0.00,,,0.01,Rainwise IP-100,2014-03-14 21:15:00,
2014-03-14 17:20:00,24.2,18.0,16.25,SE,135,7.0,9.0,76,0.00,,,0.01,Rainwise IP-100,2014-03-14 21:20:00,
2014-03-14 17:25:00,24.3,18.0,16.25,South,180,1.0,11.0,78,0.00,,,0.01,Rainwise IP-100,2014-03-14 21:25:00,
2014-03-14 17:31:00,24.2,18.0,16.25,SSW,202,5.0,14.0,74,0.00,,,0.01,Rainwise IP-100,2014-03-14 21:31:00,
2014-03-14 17:36:00,24.1,18.0,16.25,NW,315,1.0,12.0,75,0.00,,,0.01,Rainwise IP-100,2014-03-14 21:36:00,
2014-03-14 17:41:00,24.2,18.0,16.25,SW,225,3.0,9.0,76,0.00,,,0.01,Rainwise IP-100,2014-03-14 21:41:00,
2014-03-14 17:46:00,24.2,18.0,16.25,NE,45,1.0,12.0,76,0.00,,,0.01,Rainwise IP-100,2014-03-14 21:46:00,
2014-03-14 17:51:00,24.2,18.0,16.25,ENE,67,3.0,9.0,77,0.00,,,0.01,Rainwise IP-100,2014-03-14 21:51:00,
2014-03-14 17:57:00,24.2,18.0,16.25,South,180,7.0,10.0,77,0.00,,,0.01,Rainwise IP-100,2014-03-14 21:57:00,
2014-03-14 18:02:00,24.2,18.0,16.25,SSE,157,2.0,10.0,76,0.00,,,0.01,Rainwise IP-100,2014-03-14 22:02:00,
2014-03-14 18:08:00,24.2,18.0,16.25,SE,135,6.0,13.0,75,0.00,,,0.01,Rainwise IP-100,2014-03-14 22:08:00,
2014-03-14 18:13:00,24.2,18.0,16.25,SSE,157,5.0,15.0,78,0.00,,,0.01,Rainwise IP-100,2014-03-14 22:13:00,
2014-03-14 18:18:00,24.2,18.0,16.25,SE,135,6.0,13.0,75,0.00,,,0.01,Rainwise IP-100,2014-03-14 22:18:00,
2014-03-14 18:23:00,24.1,18.0,16.25,SSW,202,6.0,7.0,78,0.00,,,0.01,Rainwise IP-100,2014-03-14 22:23:00,
2014-03-14 18:28:00,24.1,18.0,16.25,SSE,157,6.0,9.0,77,0.00,,,0.01,Rainwise IP-100,2014-03-14 22:28:00,
2014-03-14 18:33:00,24.1,18.0,16.25,South,180,5.0,15.0,77,0.00,,,0.01,Rainwise IP-100,2014-03-14 22:33:00,
2014-03-14 18:38:00,24.2,18.0,16.25,SW,225,5.0,13.0,75,0.00,,,0.01,Rainwise IP-100,2014-03-14 22:38:00,
2014-03-14 18:44:00,24.3,18.0,16.25,SW,225,2.0,13.0,75,0.00,,,0.01,Rainwise IP-100,2014-03-14 22:44:00,
2014-03-14 18:49:00,24.2,18.0,16.25,SSE,157,2.0,12.0,74,0.00,,,0.01,Rainwise IP-100,2014-03-14 22:49:00,
2014-03-14 18:54:00,24.2,18.0,16.25,SSW,202,8.0,8.0,76,0.00,,,0.01,Rainwise IP-100,2014-03-14 22:54:00,
2014-03-14 18:59:00,24.2,18.0,16.25,East,90,3.0,11.0,76,0.00,,,0.01,Rainwise IP-100,2014-03-14 22:59:00,
2014-03-14 19:04:00,24.3,18.0,16.25,South,180,2.0,13.0,76,0.00,,,0.01,Rainwise IP-100,2014-03-14 23:04:00,
2014-03-14 19:09:00,24.3,18.0,16.25,SE,135,4.0,12.0,75,0.00,,,0.01,Rainwise IP-100,2014-03-14 23:09:00,
2014-03-14 19:14:00,24.5,18.0,16.25,ESE,112,4.0,13.0,74,0.00,,,0.01,Rainwise IP-100,2014-03-14 23:14:00,
2014-03-14 19:19:00,24.5,21.0,16.25,South,180,3.0,10.0,75,0.00,,,0.01,Rainwise IP-100,2014-03-14 23:19:00,
2014-03-14 19:25:00,24.6,18.0,16.25,SSE,157,1.0,9.0,73,0.00,,,0.01,Rainwise IP-100,2014-03-14 23:25:00,
2014-03-14 19:30:00,24.6,18.0,16.25,SSE,157,4.0,12.0,74,0.00,,,0.01,Rainwise IP-100,2014-03-14 23:30:00,
2014-03-14 19:35:00,24.6,18.0,16.25,SSW,202,5.0,11.0,74,0.00,,,0.01,Rainwise IP-100,2014-03-14 23:35:00,
2014-03-14 19:40:00,24.6,18.0,16.25,SE,135,2.0,11.0,73,0.00,,,0.01,Rainwise IP-100,2014-03-14 23:40:00,
2014-03-14 19:45:00,24.7,18.0,16.25,WSW,247,4.0,8.0,73,0.00,,,0.01,Rainwise IP-100,2014-03-14 23:45:00,
2014-03-14 19:50:00,24.6,18.0,16.25,SSE,157,3.0,13.0,71,0.00,,,0.01,Rainwise IP-100,2014-03-14 23:50:00,
2014-03-14 19:55:00,24.7,18.0,16.25,SSE,157,4.0,12.0,73,0.00,,,0.01,Rainwise IP-100,2014-03-14 23:55:00,
2014-03-14 20:01:00,24.7,18.0,16.25,South,180,1.0,8.0,74,0.00,,,0.01,Rainwise IP-100,2014-03-15 00:01:00,
2014-03-14 20:06:00,24.8,18.0,16.25,SE,135,7.0,11.0,70,0.00,,,0.01,Rainwise IP-100,2014-03-15 00:06:00,
2014-03-14 20:11:00,24.8,18.0,16.25,South,180,6.0,10.0,72,0.00,,,0.01,Rainwise IP-100,2014-03-15 00:11:00,
2014-03-14 20:16:00,24.4,18.0,16.25,SE,135,6.0,7.0,74,0.00,,,0.01,Rainwise IP-100,2014-03-15 00:16:00,
2014-03-14 20:21:00,24.3,16.0,16.25,SSE,157,2.0,11.0,72,0.00,,,0.01,Rainwise IP-100,2014-03-15 00:21:00,
2014-03-14 20:26:00,24.1,18.0,16.25,SSW,202,3.0,8.0,74,0.00,,,0.01,Rainwise IP-100,2014-03-15 00:26:00,
2014-03-14 20:31:00,24.0,16.0,16.25,SE,135,3.0,9.0,73,0.00,,,0.01,Rainwise IP-100,2014-03-15 00:31:00,
2014-03-14 20:36:00,23.9,18.0,16.25,WNW,292,6.0,7.0,74,0.00,,,0.01,Rainwise IP-100,2014-03-15 00:36:00,
2014-03-14 20:42:00,23.9,18.0,16.25,SW,225,2.0,8.0,74,0.00,,,0.01,Rainwise IP-100,2014-03-15 00:42:00,
2014-03-14 20:47:00,24.2,16.0,16.25,NW,315,4.0,9.0,73,0.00,,,0.01,Rainwise IP-100,2014-03-15 00:47:00,
2014-03-14 20:52:00,24.1,18.0,16.25,WSW,247,5.0,6.0,75,0.00,,,0.01,Rainwise IP-100,2014-03-15 00:52:00,
2014-03-14 20:57:00,24.1,18.0,16.25,West,270,0.0,6.0,75,0.00,,,0.01,Rainwise IP-100,2014-03-15 00:57:00,
2014-03-14 21:02:00,24.0,18.0,16.25,SW,225,3.0,9.0,74,0.00,,,0.01,Rainwise IP-100,2014-03-15 01:02:00,
2014-03-14 21:07:00,24.0,18.0,16.25,South,180,0.0,7.0,76,0.00,,,0.01,Rainwise IP-100,2014-03-15 01:07:00,
2014-03-14 21:12:00,23.8,18.0,16.25,SSW,202,0.0,7.0,76,0.00,,,0.01,Rainwise IP-100,2014-03-15 01:12:00,
2014-03-14 21:18:00,23.7,18.0,16.25,South,180,1.0,6.0,76,0.00,,,0.01,Rainwise IP-100,2014-03-15 01:18:00,
2014-03-14 21:23:00,23.6,18.0,16.25,SSW,202,0.0,6.0,77,0.00,,,0.01,Rainwise IP-100,2014-03-15 01:23:00,
2014-03-14 21:28:00,23.5,18.0,16.25,South,180,3.0,7.0,77,0.00,,,0.01,Rainwise IP-100,2014-03-15 01:28:00,
2014-03-14 21:33:00,23.5,18.0,16.25,SSE,157,0.0,8.0,76,0.00,,,0.01,Rainwise IP-100,2014-03-15 01:33:00,
2014-03-14 21:38:00,23.6,18.0,16.25,West,270,4.0,6.0,77,0.00,,,0.01,Rainwise IP-100,2014-03-15 01:38:00,
2014-03-14 21:43:00,23.5,18.0,16.25,South,180,0.0,6.0,77,0.00,,,0.01,Rainwise IP-100,2014-03-15 01:43:00,
2014-03-14 21:48:00,23.4,16.0,16.25,West,270,1.0,6.0,78,0.00,,,0.01,Rainwise IP-100,2014-03-15 01:48:00,
2014-03-14 21:53:00,23.6,18.0,16.25,South,180,0.0,7.0,78,0.00,,,0.01,Rainwise IP-100,2014-03-15 01:53:00,
2014-03-14 21:59:00,23.6,18.0,16.25,WSW,247,4.0,6.0,78,0.00,,,0.01,Rainwise IP-100,2014-03-15 01:59:00,
2014-03-14 22:04:00,23.7,18.0,16.25,West,270,1.0,7.0,77,0.00,,,0.01,Rainwise IP-100,2014-03-15 02:04:00,
2014-03-14 22:09:00,23.9,18.0,16.25,SE,135,0.0,7.0,78,0.00,,,0.01,Rainwise IP-100,2014-03-15 02:09:00,
2014-03-14 22:14:00,24.1,18.0,16.25,SW,225,5.0,6.0,77,0.00,,,0.01,Rainwise IP-100,2014-03-15 02:14:00,
2014-03-14 22:19:00,24.4,18.0,16.25,SW,225,6.0,6.0,76,0.00,,,0.01,Rainwise IP-100,2014-03-15 02:19:00,
2014-03-14 22:24:00,24.8,21.0,16.25,SW,225,2.0,7.0,76,0.00,,,0.01,Rainwise IP-100,2014-03-15 02:24:00,
2014-03-14 22:29:00,24.7,21.0,16.25,SW,225,1.0,6.0,77,0.00,,,0.01,Rainwise IP-100,2014-03-15 02:29:00,
2014-03-14 22:35:00,24.6,21.0,16.25,West,270,0.0,6.0,77,0.00,,,0.01,Rainwise IP-100,2014-03-15 02:35:00,
2014-03-14 22:40:00,24.6,21.0,16.25,South,180,4.0,7.0,76,0.00,,,0.01,Rainwise IP-100,2014-03-15 02:40:00,
2014-03-14 22:45:00,24.7,21.0,16.25,WNW,292,0.0,7.0,76,0.00,,,0.01,Rainwise IP-100,2014-03-15 02:45:00,
2014-03-14 22:50:00,24.9,21.0,16.25,SSE,157,5.0,6.0,76,0.00,,,0.01,Rainwise IP-100,2014-03-15 02:50:00,
2014-03-14 22:55:00,25.0,21.0,16.25,SE,135,6.0,7.0,76,0.00,,,0.01,Rainwise IP-100,2014-03-15 02:55:00,
2014-03-14 23:00:00,25.2,21.0,16.25,WSW,247,1.0,6.0,77,0.00,,,0.01,Rainwise IP-100,2014-03-15 03:00:00,
2014-03-14 23:05:00,24.9,21.0,16.25,WSW,247,0.0,6.0,76,0.00,,,0.01,Rainwise IP-100,2014-03-15 03:05:00,
2014-03-14 23:10:00,24.9,21.0,16.25,SW,225,1.0,6.0,78,0.00,,,0.01,Rainwise IP-100,2014-03-15 03:10:00,
2014-03-14 23:16:00,24.9,21.0,16.25,South,180,0.0,6.0,78,0.00,,,0.01,Rainwise IP-100,2014-03-15 03:16:00,
2014-03-14 23:21:00,25.2,21.0,16.25,ESE,112,5.0,7.0,76,0.00,,,0.01,Rainwise IP-100,2014-03-15 03:21:00,
2014-03-14 23:26:00,25.1,21.0,16.25,West,270,1.0,6.0,76,0.00,,,0.01,Rainwise IP-100,2014-03-15 03:26:00,
2014-03-14 23:31:00,25.1,21.0,16.25,WNW,292,0.0,6.0,76,0.00,,,0.01,Rainwise IP-100,2014-03-15 03:31:00,
2014-03-14 23:36:00,24.9,21.0,16.25,SE,135,2.0,6.0,77,0.00,,,0.01,Rainwise IP-100,2014-03-15 03:36:00,
2014-03-14 23:41:00,24.9,21.0,16.25,WNW,292,0.0,7.0,77,0.00,,,0.01,Rainwise IP-100,2014-03-15 03:41:00,
2014-03-14 23:46:00,24.8,21.0,16.25,SE,135,0.0,5.0,78,0.00,,,0.01,Rainwise IP-100,2014-03-15 03:46:00,
2014-03-14 23:52:00,24.8,21.0,16.25,South,180,2.0,6.0,80,0.00,,,0.01,Rainwise IP-100,2014-03-15 03:52:00,
2014-03-14 23:57:00,24.9,21.0,16.25,NW,315,2.0,4.0,78,0.00,,,0.01,Rainwise IP-100,2014-03-15 03:57:00,